createdAt,value
2018-07-28T00:02:44.411Z,27.90
2018-07-28T00:05:47.648Z,27.90
2018-07-28T00:08:51.008Z,27.80
2018-07-28T00:11:54.271Z,27.70
2018-07-28T00:14:57.587Z,28.00
2018-07-28T00:18:01.008Z,27.70
2018-07-28T00:21:04.461Z,27.80
2018-07-28T00:24:07.801Z,27.50
2018-07-28T00:27:11.142Z,27.70
2018-07-28T00:30:14.627Z,27.80
2018-07-28T00:33:17.880Z,27.80
2018-07-28T00:36:21.149Z,27.90
2018-07-28T00:39:30.337Z,27.90
2018-07-28T00:42:33.590Z,27.80
2018-07-28T00:45:36.989Z,27.80
2018-07-28T00:48:40.252Z,27.90
2018-07-28T00:51:43.558Z,27.60
2018-07-28T00:54:47.525Z,27.70
2018-07-28T00:57:50.891Z,27.80
2018-07-28T01:00:54.388Z,27.90
2018-07-28T01:03:57.716Z,27.90
2018-07-28T01:07:01.000Z,28.00
2018-07-28T01:10:05.156Z,28.20
2018-07-28T01:13:08.910Z,27.90
2018-07-28T01:16:12.382Z,27.90
2018-07-28T01:19:15.924Z,28.00
2018-07-28T01:22:19.280Z,28.00
2018-07-28T01:25:22.647Z,28.10
2018-07-28T01:28:25.906Z,28.20
2018-07-28T01:31:29.216Z,28.00
2018-07-28T01:34:32.670Z,28.10
2018-07-28T01:37:36.107Z,28.00
2018-07-28T01:40:39.446Z,28.00
2018-07-28T01:43:42.801Z,28.40
2018-07-28T01:46:46.093Z,27.90
2018-07-28T01:49:49.515Z,28.00
2018-07-28T01:52:52.807Z,27.80
2018-07-28T01:55:56.099Z,27.80
2018-07-28T01:58:59.528Z,28.30
2018-07-28T02:02:02.873Z,27.80
2018-07-28T02:05:07.989Z,27.70
2018-07-28T02:08:11.285Z,27.80
2018-07-28T02:11:14.593Z,27.80
2018-07-28T02:14:17.825Z,28.00
2018-07-28T02:17:21.014Z,27.80
2018-07-28T02:20:24.285Z,27.70
2018-07-28T02:23:27.508Z,27.70
2018-07-28T02:26:30.678Z,27.50
2018-07-28T02:29:33.960Z,27.50
2018-07-28T02:32:37.121Z,27.50
2018-07-28T02:35:40.287Z,27.50
2018-07-28T02:38:43.520Z,27.40
2018-07-28T02:41:46.752Z,27.40
2018-07-28T02:44:50.053Z,27.30
2018-07-28T02:47:53.304Z,27.30
2018-07-28T02:50:56.556Z,27.30
2018-07-28T02:53:59.812Z,27.30
2018-07-28T02:57:03.054Z,27.30
2018-07-28T03:00:07.826Z,27.30
2018-07-28T03:03:11.082Z,27.30
2018-07-28T03:06:14.340Z,27.20
2018-07-28T03:09:17.616Z,27.20
2018-07-28T03:12:20.832Z,27.10
2018-07-28T03:15:30.603Z,27.00
2018-07-28T03:18:33.807Z,26.90
2018-07-28T03:21:37.141Z,27.00
2018-07-28T03:24:40.326Z,26.80
2018-07-28T03:27:43.518Z,26.80
2018-07-28T03:30:46.696Z,26.70
2018-07-28T03:33:50.004Z,26.90
2018-07-28T03:36:53.201Z,26.90
2018-07-28T03:39:56.433Z,26.70
2018-07-28T03:42:59.676Z,26.70
2018-07-28T03:46:03.542Z,26.50
2018-07-28T03:49:06.842Z,26.60
2018-07-28T03:52:10.132Z,26.00
2018-07-28T03:55:13.499Z,26.00
2018-07-28T03:58:16.828Z,26.30
2018-07-28T04:01:20.221Z,26.50
2018-07-28T04:04:23.576Z,26.60
2018-07-28T04:07:26.921Z,26.70
2018-07-28T04:10:30.352Z,26.80
2018-07-28T04:13:33.774Z,26.60
2018-07-28T04:16:37.061Z,26.60
2018-07-28T04:19:40.421Z,26.60
2018-07-28T04:22:43.803Z,26.50
2018-07-28T04:25:47.237Z,26.40
2018-07-28T04:28:50.667Z,26.80
2018-07-28T04:31:54.018Z,26.40
2018-07-28T04:34:57.332Z,26.20
2018-07-28T04:38:00.665Z,26.50
2018-07-28T04:41:04.063Z,26.40
2018-07-28T04:44:07.475Z,26.50
2018-07-28T04:47:10.792Z,26.60
2018-07-28T04:50:14.141Z,26.50
2018-07-28T04:53:17.516Z,26.60
2018-07-28T04:56:20.817Z,26.70
2018-07-28T04:59:24.159Z,26.60
2018-07-28T05:02:28.116Z,26.40
2018-07-28T05:05:31.757Z,26.40
2018-07-28T05:08:35.269Z,26.20
2018-07-28T05:11:38.650Z,26.50
2018-07-28T05:14:41.911Z,26.60
2018-07-28T05:17:45.239Z,26.60
2018-07-28T05:20:49.814Z,26.50
2018-07-28T05:23:54.181Z,26.70
2018-07-28T05:27:00.405Z,26.70
2018-07-28T05:30:04.723Z,26.60
2018-07-28T05:33:08.042Z,26.50
2018-07-28T05:36:11.695Z,26.80
2018-07-28T05:39:15.047Z,26.40
2018-07-28T05:42:18.398Z,26.60
2018-07-28T05:45:21.694Z,26.90
2018-07-28T05:48:25.068Z,26.60
2018-07-28T05:51:28.450Z,26.60
2018-07-28T05:54:31.790Z,26.60
2018-07-28T05:57:35.138Z,26.60
2018-07-28T06:00:38.473Z,26.60
2018-07-28T06:03:41.790Z,26.60
2018-07-28T06:06:45.269Z,26.50
2018-07-28T06:09:48.674Z,26.60
2018-07-28T06:12:52.029Z,26.80
2018-07-28T06:15:55.386Z,26.80
2018-07-28T06:18:58.693Z,26.90
2018-07-28T06:22:01.950Z,26.80
2018-07-28T06:25:06.186Z,26.70
2018-07-28T06:28:09.511Z,26.60
2018-07-28T06:31:13.061Z,26.60
2018-07-28T06:34:16.318Z,26.70
2018-07-28T06:37:19.604Z,26.70
2018-07-28T06:40:22.826Z,26.90
2018-07-28T06:43:26.117Z,26.90
2018-07-28T06:46:29.406Z,26.90
2018-07-28T06:49:32.652Z,26.60
2018-07-28T06:52:35.854Z,26.30
2018-07-28T06:55:38.975Z,26.30
2018-07-28T06:58:42.176Z,26.30
2018-07-28T07:01:45.147Z,25.90
2018-07-28T07:04:48.151Z,26.10
2018-07-28T07:07:51.314Z,26.10
2018-07-28T07:10:54.406Z,26.10
2018-07-28T07:13:57.393Z,26.10
2018-07-28T07:17:00.615Z,25.80
2018-07-28T07:20:04.434Z,25.80
2018-07-28T07:23:07.439Z,25.80
2018-07-28T07:26:10.655Z,25.90
2018-07-28T07:29:13.709Z,26.10
2018-07-28T07:32:16.800Z,26.00
2018-07-28T07:35:19.834Z,26.00
2018-07-28T07:38:22.767Z,25.90
2018-07-28T07:41:25.821Z,25.80
2018-07-28T07:44:28.871Z,26.00
2018-07-28T07:47:31.947Z,25.90
2018-07-28T07:50:35.469Z,25.90
2018-07-28T07:53:38.465Z,25.90
2018-07-28T07:56:42.991Z,25.70
2018-07-28T07:59:45.947Z,25.60
2018-07-28T08:02:48.937Z,25.90
2018-07-28T08:05:52.167Z,25.90
2018-07-28T08:08:55.221Z,25.90
2018-07-28T08:11:58.317Z,25.80
2018-07-28T08:15:01.659Z,25.70
2018-07-28T08:18:04.824Z,25.80
2018-07-28T08:21:07.977Z,26.00
2018-07-28T08:24:11.269Z,25.90
2018-07-28T08:27:14.346Z,25.70
2018-07-28T08:30:17.481Z,25.80
2018-07-28T08:33:20.587Z,25.80
2018-07-28T08:36:23.638Z,25.70
2018-07-28T08:39:26.712Z,25.70
2018-07-28T08:42:29.967Z,25.80
2018-07-28T08:45:33.338Z,25.90
2018-07-28T08:48:36.463Z,25.80
2018-07-28T08:51:39.574Z,25.60
2018-07-28T08:54:42.719Z,25.70
2018-07-28T08:57:45.826Z,25.70
2018-07-28T09:00:48.917Z,25.90
2018-07-28T09:03:52.222Z,25.80
2018-07-28T09:06:55.266Z,25.70
2018-07-28T09:09:58.839Z,25.60
2018-07-28T09:13:01.933Z,25.60
2018-07-28T09:16:04.925Z,25.60
2018-07-28T09:19:08.057Z,25.60
2018-07-28T09:22:11.407Z,25.60
2018-07-28T09:25:14.662Z,25.60
2018-07-28T09:28:18.084Z,25.40
2018-07-28T09:31:21.251Z,25.40
2018-07-28T09:34:24.339Z,25.30
2018-07-28T09:37:27.457Z,25.50
2018-07-28T09:40:30.528Z,25.60
2018-07-28T09:43:34.210Z,25.70
2018-07-28T09:46:37.444Z,25.50
2018-07-28T09:49:40.542Z,25.30
2018-07-28T09:52:43.794Z,25.40
2018-07-28T09:55:47.239Z,25.50
2018-07-28T09:58:50.405Z,25.50
2018-07-28T10:01:53.563Z,25.90
2018-07-28T10:04:56.740Z,25.60
2018-07-28T10:08:00.472Z,25.90
2018-07-28T10:11:03.636Z,25.80
2018-07-28T10:14:06.963Z,25.60
2018-07-28T10:17:10.126Z,25.50
2018-07-28T10:20:13.226Z,25.40
2018-07-28T10:23:16.408Z,25.40
2018-07-28T10:26:19.605Z,25.50
2018-07-28T10:29:22.836Z,25.60
2018-07-28T10:32:25.985Z,25.70
2018-07-28T10:35:29.181Z,25.80
2018-07-28T10:38:33.316Z,25.70
2018-07-28T10:41:36.960Z,25.60
2018-07-28T10:44:40.486Z,25.50
2018-07-28T10:47:44.048Z,25.70
2018-07-28T10:50:47.717Z,25.90
2018-07-28T10:53:50.961Z,26.10
2018-07-28T10:56:54.446Z,26.10
2018-07-28T10:59:58.045Z,26.20
2018-07-28T11:03:01.576Z,26.20
2018-07-28T11:06:05.609Z,26.20
2018-07-28T11:09:09.457Z,26.20
2018-07-28T11:12:12.980Z,26.40
2018-07-28T11:15:16.212Z,26.50
2018-07-28T11:18:20.479Z,26.60
2018-07-28T11:21:23.517Z,26.40
2018-07-28T11:24:26.512Z,26.20
2018-07-28T11:27:29.512Z,26.20
2018-07-28T11:30:32.523Z,26.30
2018-07-28T11:33:52.694Z,26.40
2018-07-28T11:37:12.758Z,26.40
2018-07-28T11:40:32.683Z,26.50
2018-07-28T11:43:52.663Z,26.40
2018-07-28T11:46:55.577Z,26.40
2018-07-28T11:49:58.556Z,26.50
2018-07-28T11:53:01.487Z,27.00
2018-07-28T11:56:04.972Z,27.50
2018-07-28T11:59:07.907Z,27.80
2018-07-28T12:02:10.911Z,28.10
2018-07-28T12:05:13.871Z,28.40
2018-07-28T12:08:16.801Z,28.70
2018-07-28T12:11:19.816Z,28.60
2018-07-28T12:14:22.815Z,28.70
2018-07-28T12:17:25.779Z,28.80
2018-07-28T12:20:28.728Z,28.90
2018-07-28T12:23:31.777Z,28.90
2018-07-28T12:26:34.976Z,28.90
2018-07-28T12:29:37.921Z,28.80
2018-07-28T12:32:41.166Z,28.80
2018-07-28T12:35:44.221Z,28.80
2018-07-28T12:38:47.218Z,28.80
2018-07-28T12:41:50.283Z,28.60
2018-07-28T12:44:53.279Z,28.30
2018-07-28T12:47:56.305Z,28.20
2018-07-28T12:50:59.297Z,28.20
2018-07-28T12:54:02.397Z,28.70
2018-07-28T12:57:05.418Z,28.90
2018-07-28T13:00:08.461Z,28.70
2018-07-28T13:03:11.499Z,28.60
2018-07-28T13:06:14.463Z,28.90
2018-07-28T13:09:17.480Z,29.30
2018-07-28T13:12:20.520Z,29.30
2018-07-28T13:15:23.501Z,29.40
2018-07-28T13:18:26.490Z,29.40
2018-07-28T13:21:29.526Z,29.60
2018-07-28T13:24:32.514Z,29.80
2018-07-28T13:27:35.529Z,29.80
2018-07-28T13:30:38.495Z,29.60
2018-07-28T13:33:41.497Z,29.10
2018-07-28T13:36:44.498Z,28.80
2018-07-28T13:39:47.445Z,29.00
2018-07-28T13:42:50.468Z,29.00
2018-07-28T13:46:00.173Z,29.30
2018-07-28T13:49:03.401Z,29.30
2018-07-28T13:52:06.517Z,29.00
2018-07-28T13:55:09.500Z,28.70
2018-07-28T13:58:12.568Z,28.50
2018-07-28T14:01:15.570Z,28.40
2018-07-28T14:04:18.585Z,28.20
2018-07-28T14:07:21.602Z,28.10
2018-07-28T14:10:24.616Z,28.10
2018-07-28T14:13:27.635Z,28.30
2018-07-28T14:16:30.650Z,28.50
2018-07-28T14:19:33.692Z,28.40
2018-07-28T14:22:36.900Z,28.20
2018-07-28T14:25:39.887Z,28.10
2018-07-28T14:28:42.873Z,28.20
2018-07-28T14:31:45.827Z,28.10
2018-07-28T14:34:48.794Z,28.10
2018-07-28T14:37:51.878Z,28.10
2018-07-28T14:40:54.807Z,28.10
2018-07-28T14:43:57.822Z,28.30
2018-07-28T14:47:00.789Z,28.40
2018-07-28T14:50:03.871Z,28.30
2018-07-28T14:53:07.490Z,28.30
2018-07-28T14:56:10.473Z,28.30
2018-07-28T14:59:13.760Z,28.10
2018-07-28T15:02:16.700Z,28.20
2018-07-28T15:05:19.622Z,28.10
2018-07-28T15:08:22.572Z,27.90
2018-07-28T15:11:25.570Z,28.00
2018-07-28T15:14:28.521Z,27.90
2018-07-28T15:17:31.468Z,27.80
2018-07-28T15:20:34.452Z,27.60
2018-07-28T15:23:37.616Z,27.60
2018-07-28T15:26:40.559Z,27.70
2018-07-28T15:29:43.513Z,27.60
2018-07-28T15:32:46.666Z,27.80
2018-07-28T15:35:49.873Z,28.00
2018-07-28T15:38:52.819Z,27.90
2018-07-28T15:41:56.004Z,27.60
2018-07-28T15:44:59.023Z,27.80
2018-07-28T15:48:02.159Z,28.10
2018-07-28T15:51:05.181Z,28.10
2018-07-28T15:54:08.187Z,27.80
2018-07-28T15:57:11.316Z,27.90
2018-07-28T16:00:16.816Z,28.10
2018-07-28T16:03:19.994Z,28.10
2018-07-28T16:06:23.018Z,28.00
2018-07-28T16:09:26.067Z,28.00
2018-07-28T16:12:29.236Z,28.10
2018-07-28T16:15:32.452Z,28.20
2018-07-28T16:18:35.511Z,28.10
2018-07-28T16:21:38.476Z,28.20
2018-07-28T16:24:41.502Z,28.40
2018-07-28T16:27:44.549Z,28.90
2018-07-28T16:30:47.626Z,29.00
2018-07-28T16:33:50.918Z,29.00
2018-07-28T16:36:54.091Z,28.80
2018-07-28T16:39:57.212Z,28.50
2018-07-28T16:43:00.223Z,28.10
2018-07-28T16:46:03.495Z,27.80
2018-07-28T16:49:06.734Z,27.80
2018-07-28T16:52:09.792Z,27.80
2018-07-28T16:55:12.815Z,27.50
2018-07-28T16:58:15.883Z,27.40
2018-07-28T17:01:18.869Z,27.40
2018-07-28T17:04:21.941Z,27.40
2018-07-28T17:07:24.948Z,27.40
2018-07-28T17:10:27.968Z,27.40
2018-07-28T17:13:31.033Z,27.50
2018-07-28T17:16:34.335Z,27.50
2018-07-28T17:19:37.414Z,27.40
2018-07-28T17:22:40.523Z,27.40
2018-07-28T17:25:43.589Z,27.30
2018-07-28T17:28:46.795Z,27.30
2018-07-28T17:31:50.693Z,27.20
2018-07-28T17:34:53.890Z,27.10
2018-07-28T17:37:56.933Z,27.00
2018-07-28T17:41:00.069Z,26.80
2018-07-28T17:44:03.062Z,26.80
2018-07-28T17:47:06.236Z,26.80
2018-07-28T17:50:09.347Z,26.60
2018-07-28T17:53:12.485Z,26.30
2018-07-28T17:56:15.444Z,26.00
2018-07-28T17:59:18.355Z,25.90
2018-07-28T18:02:21.349Z,25.80
2018-07-28T18:05:24.353Z,25.70
2018-07-28T18:08:27.308Z,25.70
2018-07-28T18:11:30.212Z,25.80
2018-07-28T18:14:33.264Z,26.00
2018-07-28T18:17:36.227Z,25.90
2018-07-28T18:20:39.196Z,25.70
2018-07-28T18:23:42.146Z,25.70
2018-07-28T18:26:45.180Z,25.60
2018-07-28T18:29:48.124Z,25.60
2018-07-28T18:32:51.096Z,25.50
2018-07-28T18:35:54.076Z,25.40
2018-07-28T18:38:57.031Z,25.40
2018-07-28T18:41:59.974Z,25.30
2018-07-28T18:45:02.946Z,25.30
2018-07-28T18:48:05.960Z,25.30
2018-07-28T18:51:08.985Z,25.20
2018-07-28T18:54:11.976Z,25.30
2018-07-28T18:57:14.946Z,25.30
2018-07-28T19:00:17.928Z,25.20
2018-07-28T19:03:20.864Z,25.20
2018-07-28T19:06:23.831Z,25.30
2018-07-28T19:09:32.512Z,25.40
2018-07-28T19:12:41.034Z,25.60
2018-07-28T19:15:43.964Z,25.60
2018-07-28T19:18:52.518Z,25.60
2018-07-28T19:21:55.495Z,25.80
2018-07-28T19:24:58.461Z,25.70
2018-07-28T19:28:06.910Z,25.80
2018-07-28T19:31:09.839Z,25.70
2018-07-28T19:34:12.796Z,25.80
2018-07-28T19:37:19.984Z,25.70
2018-07-28T19:40:22.981Z,25.70
2018-07-28T19:43:25.906Z,25.70
2018-07-28T19:46:28.910Z,25.70
2018-07-28T19:49:31.848Z,25.80
2018-07-28T19:52:34.781Z,25.70
2018-07-28T19:55:37.744Z,25.70
2018-07-28T19:58:40.662Z,25.60
2018-07-28T20:01:43.597Z,25.60
2018-07-28T20:04:46.561Z,25.70
2018-07-28T20:07:49.497Z,25.60
2018-07-28T20:10:52.497Z,25.60
2018-07-28T20:13:55.431Z,25.50
2018-07-28T20:16:58.481Z,25.50
2018-07-28T20:20:01.366Z,25.50
2018-07-28T20:23:04.323Z,25.50
2018-07-28T20:26:07.424Z,25.50
2018-07-28T20:29:10.346Z,25.40
2018-07-28T20:32:13.400Z,25.50
2018-07-28T20:35:16.299Z,25.50
2018-07-28T20:38:19.290Z,25.40
2018-07-28T20:41:22.364Z,25.20
2018-07-28T20:44:25.282Z,25.20
2018-07-28T20:47:28.367Z,25.10
2018-07-28T20:50:31.298Z,25.20
2018-07-28T20:53:34.273Z,25.20
2018-07-28T20:56:37.237Z,25.20
2018-07-28T20:59:40.215Z,25.20
2018-07-28T21:02:43.169Z,25.10
2018-07-28T21:05:47.353Z,25.00
2018-07-28T21:08:50.315Z,25.00
2018-07-28T21:11:53.299Z,25.00
2018-07-28T21:14:56.287Z,25.00
2018-07-28T21:17:59.231Z,25.00
2018-07-28T21:21:02.190Z,25.00
2018-07-28T21:24:05.409Z,24.90
2018-07-28T21:27:08.417Z,24.80
2018-07-28T21:30:11.399Z,24.80
2018-07-28T21:33:14.300Z,24.80
2018-07-28T21:36:17.224Z,24.80
2018-07-28T21:39:20.199Z,24.70
2018-07-28T21:42:26.410Z,24.70
2018-07-28T21:45:29.398Z,24.60
2018-07-28T21:48:32.378Z,24.60
2018-07-28T21:51:35.788Z,24.60
2018-07-28T21:54:50.255Z,24.60
2018-07-28T21:57:53.831Z,24.40
2018-07-28T22:01:02.976Z,24.40
2018-07-28T22:04:07.370Z,24.30
2018-07-28T22:07:13.028Z,24.30
2018-07-28T22:10:18.246Z,24.10
2018-07-28T22:13:22.408Z,24.10
2018-07-28T22:16:25.979Z,24.00
2018-07-28T22:19:30.656Z,23.80
2018-07-28T22:22:34.524Z,23.90
2018-07-28T22:25:38.518Z,23.90
2018-07-28T22:28:42.149Z,23.90
2018-07-28T22:31:45.237Z,23.90
2018-07-28T22:34:48.204Z,23.70
2018-07-28T22:37:52.187Z,23.70
2018-07-28T22:40:55.204Z,23.70
2018-07-28T22:43:58.211Z,23.70
2018-07-28T22:47:01.213Z,23.70
2018-07-28T22:50:05.477Z,23.70
2018-07-28T22:53:08.892Z,23.60
2018-07-28T22:56:11.912Z,23.70
2018-07-28T22:59:14.896Z,23.60
2018-07-28T23:02:17.832Z,23.60
2018-07-28T23:05:20.790Z,23.60
2018-07-28T23:08:23.804Z,23.60
2018-07-28T23:11:26.784Z,23.60
2018-07-28T23:14:29.766Z,23.40
2018-07-28T23:17:32.806Z,23.50
2018-07-28T23:20:35.884Z,23.50
2018-07-28T23:23:38.863Z,23.50
2018-07-28T23:26:41.893Z,23.50
2018-07-28T23:29:44.856Z,23.40
2018-07-28T23:32:47.811Z,23.40
2018-07-28T23:35:51.151Z,23.40
2018-07-28T23:38:54.162Z,23.50
2018-07-28T23:41:57.207Z,23.40
2018-07-28T23:45:00.433Z,23.40
2018-07-28T23:48:03.535Z,23.40
2018-07-28T23:51:06.687Z,23.30
2018-07-28T23:54:09.838Z,23.40
2018-07-28T23:57:12.990Z,23.40
